Time;durP1;ratioP1;P1;durP2;ratioP2;P2;SDS_P1;SDS_P2;PMS_P1;PMS_P2;Temp;Humidity;BMP_temperature;BMP_pressure;BME280_temperature;BME280_humidity;BME280_pressure;Samples;Min_cycle;Max_cycle;Signal;HPM_P1;HPM_P2
2023/01/25 00:00:50;;;;;;;32.85;15.77;;;1.50;99.90;;;;;;5047940;28;20067;-60
2023/01/25 00:03:16;;;;;;;29.50;16.05;;;1.50;99.90;;;;;;5048346;28;20385;-57
2023/01/25 00:05:41;;;;;;;23.73;14.95;;;1.40;99.90;;;;;;5048633;28;20036;-58
2023/01/25 00:08:07;;;;;;;30.25;15.48;;;1.50;99.90;;;;;;5048392;28;20037;-59
2023/01/25 00:10:32;;;;;;;27.00;15.93;;;1.50;99.90;;;;;;4703268;28;10000216;-59
2023/01/25 00:12:58;;;;;;;37.67;16.40;;;1.70;99.90;;;;;;5047989;28;20033;-58
2023/01/25 00:15:24;;;;;;;35.70;15.90;;;1.50;99.90;;;;;;5048075;28;20021;-61
2023/01/25 00:17:49;;;;;;;36.15;15.80;;;1.60;99.90;;;;;;4708852;28;10000123;-58
2023/01/25 00:20:15;;;;;;;29.83;15.52;;;2.10;99.90;;;;;;5068630;28;20078;-59
2023/01/25 00:22:41;;;;;;;26.77;15.63;;;1.60;99.90;;;;;;5068360;28;20458;-60
2023/01/25 00:25:07;;;;;;;34.72;15.73;;;1.60;99.90;;;;;;5068026;28;20115;-62
2023/01/25 00:27:33;;;;;;;29.60;15.70;;;1.60;99.90;;;;;;5047722;28;20427;-63
2023/01/25 00:29:58;;;;;;;30.70;16.05;;;1.60;99.90;;;;;;5047969;28;20040;-59
2023/01/25 00:32:35;;;;;;;30.02;15.35;;;1.50;99.90;;;;;;4703436;28;10000187;-60
2023/01/25 00:35:01;;;;;;;31.27;16.30;;;1.60;99.90;;;;;;5044627;28;20052;-60
2023/01/25 00:37:41;;;;;;;28.25;15.93;;;1.60;99.90;;;;;;5048191;28;20473;-62
2023/01/25 00:40:09;;;;;;;32.88;15.32;;;1.60;99.90;;;;;;5049522;28;20037;-62
2023/01/25 00:42:35;;;;;;;28.65;15.98;;;1.60;99.90;;;;;;5048315;28;20033;-60
2023/01/25 00:45:00;;;;;;;31.23;15.00;;;1.60;99.90;;;;;;5051091;28;20021;-59
2023/01/25 00:47:26;;;;;;;34.28;15.68;;;1.60;99.90;;;;;;5054836;28;20433;-62
2023/01/25 00:49:52;;;;;;;32.08;16.00;;;1.50;99.90;;;;;;5054651;28;20036;-59
2023/01/25 00:52:17;;;;;;;28.67;15.52;;;1.60;99.90;;;;;;5054751;28;20087;-61
2023/01/25 00:54:43;;;;;;;33.28;16.08;;;1.60;99.90;;;;;;5054586;28;20055;-57
2023/01/25 00:57:09;;;;;;;38.90;17.50;;;1.60;99.90;;;;;;5054621;28;20056;-62
2023/01/25 00:59:35;;;;;;;31.52;17.77;;;1.50;99.90;;;;;;5054782;28;20500;-62
2023/01/25 01:02:01;;;;;;;34.00;17.58;;;1.60;99.90;;;;;;5055519;28;20029;-61
2023/01/25 01:04:26;;;;;;;29.25;17.65;;;1.50;99.90;;;;;;5037494;28;20047;-60
2023/01/25 01:06:53;;;;;;;41.47;17.77;;;1.50;99.90;;;;;;5054458;28;20552;-59
2023/01/25 01:09:20;;;;;;;36.83;17.88;;;1.50;99.90;;;;;;5054583;28;20035;-60
2023/01/25 01:11:46;;;;;;;83.90;31.33;;;1.50;99.90;;;;;;5054887;28;20032;-60
2023/01/25 01:14:12;;;;;;;39.17;18.77;;;1.50;99.90;;;;;;5053621;28;20063;-59
2023/01/25 01:16:38;;;;;;;44.13;20.55;;;1.50;99.90;;;;;;5054302;28;20408;-59
2023/01/25 01:19:04;;;;;;;38.97;19.42;;;1.50;99.90;;;;;;5053877;28;20039;-61
2023/01/25 01:21:30;;;;;;;36.78;17.05;;;1.50;99.90;;;;;;5054299;28;20053;-60
2023/01/25 01:23:55;;;;;;;35.90;18.52;;;1.50;99.90;;;;;;5053746;28;20102;-59
2023/01/25 01:26:21;;;;;;;37.78;19.38;;;1.90;99.90;;;;;;5054832;28;20127;-56
2023/01/25 01:28:47;;;;;;;32.47;17.65;;;1.60;99.90;;;;;;5054672;28;20066;-62
2023/01/25 01:31:18;;;;;;;45.17;19.20;;;1.60;99.90;;;;;;5059656;28;20445;-56
2023/01/25 01:33:48;;;;;;;44.65;20.15;;;1.60;99.90;;;;;;5035594;28;20036;-60
2023/01/25 01:36:16;;;;;;;46.55;21.23;;;1.60;99.90;;;;;;5053738;28;20075;-59
2023/01/25 01:38:42;;;;;;;39.67;18.80;;;1.70;99.90;;;;;;5053754;28;20488;-60
2023/01/25 01:41:08;;;;;;;39.80;18.80;;;1.70;99.90;;;;;;5053714;28;20048;-59
2023/01/25 01:43:34;;;;;;;41.95;20.20;;;2.10;99.90;;;;;;5053558;28;20037;-61
2023/01/25 01:46:02;;;;;;;43.17;20.30;;;1.60;99.90;;;;;;5053866;28;20032;-58
2023/01/25 01:48:50;;;;;;;35.63;18.52;;;1.60;99.90;;;;;;5053362;28;20096;-56
2023/01/25 01:51:31;;;;;;;39.35;20.08;;;1.60;99.90;;;;;;5053400;28;20056;-60
2023/01/25 01:54:02;;;;;;;41.30;20.00;;;1.60;99.90;;;;;;5052922;28;20072;-59
2023/01/25 01:56:33;;;;;;;41.38;20.30;;;1.70;99.90;;;;;;5052657;28;20021;-61
2023/01/25 01:59:00;;;;;;;38.15;18.92;;;1.60;99.90;;;;;;5053027;28;20488;-60
2023/01/25 02:01:26;;;;;;;44.72;20.73;;;1.60;99.90;;;;;;5053626;28;20017;-60
2023/01/25 02:03:52;;;;;;;43.67;19.75;;;2.00;99.90;;;;;;5053028;28;20036;-55
2023/01/25 02:06:27;;;;;;;44.17;20.55;;;2.10;99.90;;;;;;5052668;28;20126;-59
2023/01/25 02:08:54;;;;;;;42.45;20.42;;;2.20;99.90;;;;;;5037329;28;20033;-59
2023/01/25 02:11:20;;;;;;;43.75;20.90;;;1.60;99.90;;;;;;5052886;28;20103;-60
2023/01/25 02:13:47;;;;;;;50.00;20.52;;;1.60;99.90;;;;;;5052937;28;20139;-58
2023/01/25 02:16:16;;;;;;;42.78;20.92;;;1.60;99.90;;;;;;5053189;28;20027;-60
2023/01/25 02:18:42;;;;;;;44.72;21.70;;;1.60;99.90;;;;;;5053003;28;20021;-61
2023/01/25 02:21:08;;;;;;;49.22;23.00;;;1.60;99.90;;;;;;5053044;28;20754;-61
2023/01/25 02:23:49;;;;;;;49.50;21.75;;;1.60;99.90;;;;;;5052587;28;20067;-59
2023/01/25 02:26:17;;;;;;;48.70;22.55;;;1.60;99.90;;;;;;5034995;28;20075;-58
2023/01/25 02:29:05;;;;;;;48.65;22.42;;;1.60;99.90;;;;;;5052907;28;20029;-58
2023/01/25 02:31:31;;;;;;;44.08;21.13;;;1.50;99.90;;;;;;5052130;28;20404;-59
2023/01/25 02:33:57;;;;;;;46.17;21.77;;;1.80;99.90;;;;;;5052444;28;20033;-59
2023/01/25 02:36:32;;;;;;;52.05;22.85;;;1.60;99.90;;;;;;5052991;28;20069;-61
2023/01/25 02:39:04;;;;;;;50.60;22.65;;;1.60;99.90;;;;;;5052669;28;20419;-60
2023/01/25 02:41:32;;;;;;;50.75;22.08;;;1.60;99.90;;;;;;5092912;22;20119;-60
2023/01/25 02:43:59;;;;;;;52.65;22.65;;;1.60;99.90;;;;;;5071665;28;20086;-61
2023/01/25 02:46:31;;;;;;;52.65;23.70;;;1.70;99.90;;;;;;5072086;28;20033;-63
2023/01/25 02:48:59;;;;;;;49.45;23.33;;;1.70;99.90;;;;;;5072287;28;20403;-64
2023/01/25 02:51:27;;;;;;;54.03;22.08;;;1.70;99.90;;;;;;5072138;28;20032;-61
2023/01/25 02:53:52;;;;;;;48.08;21.75;;;1.60;99.90;;;;;;5072217;28;20488;-61
2023/01/25 02:56:18;;;;;;;54.33;24.20;;;1.60;99.90;;;;;;5071753;28;20040;-63
2023/01/25 02:58:44;;;;;;;46.90;20.88;;;1.60;99.90;;;;;;5072320;28;20024;-62
2023/01/25 03:01:11;;;;;;;38.20;18.58;;;1.70;99.90;;;;;;5071879;28;20435;-64
2023/01/25 03:03:37;;;;;;;36.58;17.73;;;1.70;99.90;;;;;;5071967;28;20430;-61
2023/01/25 03:06:02;;;;;;;37.83;17.90;;;1.80;99.90;;;;;;5071767;28;20131;-63
2023/01/25 03:08:28;;;;;;;38.75;17.42;;;1.80;99.90;;;;;;5070871;28;20025;-63
2023/01/25 03:10:59;;;;;;;33.20;16.08;;;1.80;99.90;;;;;;5071641;28;20036;-62
2023/01/25 03:13:26;;;;;;;28.40;15.30;;;1.90;99.90;;;;;;5071654;28;20039;-63
2023/01/25 03:15:52;;;;;;;30.23;17.13;;;1.90;99.90;;;;;;5072112;28;20017;-61
2023/01/25 03:18:17;;;;;;;34.90;16.90;;;1.90;99.90;;;;;;5072047;28;20043;-61
2023/01/25 03:20:43;;;;;;;33.83;17.55;;;1.90;99.90;;;;;;5071804;28;20074;-63
2023/01/25 03:23:09;;;;;;;44.95;19.40;;;1.90;99.90;;;;;;5071669;28;20391;-63
2023/01/25 03:25:34;;;;;;;40.85;20.23;;;2.00;99.90;;;;;;5071274;28;20111;-62
2023/01/25 03:28:00;;;;;;;48.08;22.15;;;1.80;99.90;;;;;;5071641;28;20100;-64
2023/01/25 03:30:25;;;;;;;42.35;21.02;;;1.80;99.90;;;;;;5071343;28;20488;-62
2023/01/25 03:32:51;;;;;;;50.28;21.80;;;1.70;99.90;;;;;;5071116;28;20024;-66
2023/01/25 03:35:17;;;;;;;39.65;19.25;;;1.70;99.90;;;;;;5071146;28;20593;-67
2023/01/25 03:37:43;;;;;;;33.67;15.35;;;1.80;99.90;;;;;;5071397;28;20056;-65
2023/01/25 03:40:09;;;;;;;33.42;16.05;;;1.80;99.90;;;;;;5071532;28;20053;-63
2023/01/25 03:42:35;;;;;;;33.00;16.90;;;1.80;99.90;;;;;;5070678;28;20036;-62
2023/01/25 03:45:00;;;;;;;46.28;17.77;;;1.80;99.90;;;;;;5071107;28;20037;-61
2023/01/25 03:47:26;;;;;;;41.40;16.55;;;1.80;99.90;;;;;;5071503;28;20066;-59
2023/01/25 03:49:52;;;;;;;30.90;16.38;;;1.80;99.90;;;;;;5071046;28;20055;-66
2023/01/25 03:52:17;;;;;;;49.15;19.60;;;1.90;99.90;;;;;;5070829;28;20282;-63
2023/01/25 03:54:43;;;;;;;36.15;17.80;;;1.90;99.90;;;;;;5070944;28;20103;-59
2023/01/25 03:57:08;;;;;;;36.50;18.88;;;2.20;99.90;;;;;;5071113;28;20544;-61
2023/01/25 03:59:34;;;;;;;32.58;16.17;;;1.90;99.90;;;;;;5070906;28;20025;-64
2023/01/25 04:02:00;;;;;;;35.95;16.35;;;2.00;99.90;;;;;;5070756;28;20178;-63
2023/01/25 04:04:25;;;;;;;38.65;15.73;;;1.90;99.90;;;;;;5070495;28;20396;-61
2023/01/25 04:06:51;;;;;;;28.55;15.63;;;1.90;99.90;;;;;;5070933;28;20132;-62
2023/01/25 04:09:17;;;;;;;32.25;15.27;;;2.00;99.90;;;;;;5071325;28;20051;-65
2023/01/25 04:11:42;;;;;;;33.72;16.45;;;2.00;99.90;;;;;;5071049;28;20024;-60
2023/01/25 04:14:09;;;;;;;31.90;16.17;;;2.00;99.90;;;;;;5070283;28;20020;-61
2023/01/25 04:16:35;;;;;;;32.60;16.38;;;2.00;99.90;;;;;;5070767;28;20033;-63
2023/01/25 04:19:01;;;;;;;28.88;15.35;;;2.00;99.90;;;;;;5070962;28;20070;-60
2023/01/25 04:21:26;;;;;;;34.05;15.88;;;2.00;99.90;;;;;;5070011;28;20017;-62
2023/01/25 04:23:52;;;;;;;29.58;15.35;;;2.00;99.90;;;;;;5070348;28;20040;-57
2023/01/25 04:26:18;;;;;;;32.40;14.32;;;2.00;99.90;;;;;;5070133;28;20373;-62
2023/01/25 04:28:43;;;;;;;29.92;15.65;;;2.00;99.90;;;;;;5070707;28;20086;-60
2023/01/25 04:31:10;;;;;;;30.75;15.25;;;2.10;99.90;;;;;;5070643;28;20115;-63
2023/01/25 04:33:35;;;;;;;25.73;14.80;;;2.10;99.90;;;;;;5070356;28;20067;-61
2023/01/25 04:36:01;;;;;;;30.63;16.23;;;2.10;99.90;;;;;;5070586;28;20048;-63
2023/01/25 04:38:27;;;;;;;34.65;15.52;;;2.10;99.90;;;;;;5070859;28;20438;-64
2023/01/25 04:40:52;;;;;;;24.52;14.52;;;2.10;99.90;;;;;;5070123;28;20066;-62
2023/01/25 04:43:19;;;;;;;27.17;15.05;;;2.40;99.90;;;;;;5070404;28;20138;-65
2023/01/25 04:45:45;;;;;;;30.63;14.98;;;2.00;99.90;;;;;;5070531;28;20492;-62
2023/01/25 04:48:12;;;;;;;26.85;14.40;;;2.60;99.90;;;;;;5070588;28;20047;-60
2023/01/25 04:50:41;;;;;;;25.33;15.07;;;2.00;99.90;;;;;;5070328;28;20048;-63
2023/01/25 04:53:08;;;;;;;31.60;15.27;;;2.10;99.90;;;;;;5070246;28;20027;-64
2023/01/25 04:55:34;;;;;;;23.90;14.05;;;2.10;99.90;;;;;;5069478;28;20029;-63
2023/01/25 04:58:00;;;;;;;31.02;16.02;;;2.10;99.90;;;;;;5070291;28;20031;-63
2023/01/25 05:00:27;;;;;;;30.85;15.95;;;2.30;99.90;;;;;;5070277;28;20032;-57
2023/01/25 05:02:53;;;;;;;36.45;16.63;;;2.00;99.90;;;;;;5070219;28;20040;-63
2023/01/25 05:05:19;;;;;;;29.17;15.38;;;2.00;99.90;;;;;;5070249;28;20033;-63
2023/01/25 05:07:45;;;;;;;25.95;14.38;;;2.00;99.90;;;;;;5070049;28;20086;-62
2023/01/25 05:10:11;;;;;;;22.80;13.55;;;2.00;99.90;;;;;;5065341;28;20051;-67
2023/01/25 05:12:37;;;;;;;24.55;13.90;;;2.00;99.90;;;;;;5065643;28;20120;-63
2023/01/25 05:15:03;;;;;;;25.50;14.32;;;2.20;99.90;;;;;;5066361;28;20103;-60
2023/01/25 05:17:29;;;;;;;24.48;14.98;;;2.00;99.90;;;;;;5077901;28;20425;-62
2023/01/25 05:19:54;;;;;;;25.27;13.88;;;2.00;99.90;;;;;;5075943;28;20024;-61
2023/01/25 05:22:20;;;;;;;21.70;14.32;;;1.90;99.90;;;;;;5077509;28;20030;-67
2023/01/25 05:24:47;;;;;;;32.17;15.82;;;2.00;99.90;;;;;;5070920;28;20031;-60
2023/01/25 05:27:15;;;;;;;30.80;14.63;;;1.90;99.90;;;;;;5075224;28;20368;-59
2023/01/25 05:29:43;;;;;;;27.35;15.35;;;2.00;99.90;;;;;;5070519;28;20476;-65
2023/01/25 05:32:12;;;;;;;31.10;15.50;;;2.00;99.90;;;;;;5083632;28;20019;-63
2023/01/25 05:34:38;;;;;;;30.08;14.38;;;2.00;99.90;;;;;;5069497;28;20062;-61
2023/01/25 05:37:05;;;;;;;17.13;12.45;;;2.20;99.90;;;;;;5077725;28;20426;-67
2023/01/25 05:39:31;;;;;;;28.77;13.55;;;2.10;99.90;;;;;;5076309;28;20056;-61
2023/01/25 05:41:57;;;;;;;24.83;13.25;;;2.00;99.90;;;;;;5085078;28;20518;-61
2023/01/25 05:44:23;;;;;;;18.05;12.25;;;2.00;99.90;;;;;;5071856;28;20032;-66
2023/01/25 05:46:48;;;;;;;30.15;12.68;;;1.90;99.90;;;;;;5075553;28;20024;-53
2023/01/25 05:49:14;;;;;;;18.73;11.02;;;1.90;99.90;;;;;;5078465;28;20063;-63
2023/01/25 05:51:41;;;;;;;20.65;10.52;;;1.90;99.90;;;;;;5069819;28;20029;-62
2023/01/25 05:54:10;;;;;;;21.48;12.43;;;1.90;99.90;;;;;;5083727;28;20120;-57
2023/01/25 05:56:36;;;;;;;18.17;10.65;;;1.90;99.90;;;;;;5072880;28;20069;-60
2023/01/25 05:59:02;;;;;;;19.00;11.25;;;1.90;99.90;;;;;;5080642;28;20403;-64
2023/01/25 06:01:28;;;;;;;21.92;12.05;;;2.10;99.90;;;;;;5067511;28;20474;-64
2023/01/25 06:03:54;;;;;;;14.25;10.32;;;1.90;99.90;;;;;;5079622;28;20048;-65
2023/01/25 06:06:20;;;;;;;22.50;12.02;;;1.80;99.90;;;;;;5085142;28;20067;-61
2023/01/25 06:08:46;;;;;;;25.88;11.65;;;1.70;99.90;;;;;;5081374;28;20028;-61
2023/01/25 06:11:15;;;;;;;21.20;12.52;;;1.70;99.90;;;;;;5077881;28;20040;-64
2023/01/25 06:13:41;;;;;;;32.85;14.85;;;1.80;99.90;;;;;;5073704;28;20047;-62
2023/01/25 06:16:07;;;;;;;25.98;14.25;;;1.80;99.90;;;;;;5082567;28;20025;-65
2023/01/25 06:18:34;;;;;;;21.63;12.38;;;1.90;99.90;;;;;;5083832;28;20032;-66
2023/01/25 06:21:01;;;;;;;31.85;13.90;;;1.90;99.90;;;;;;5071987;28;20514;-63
2023/01/25 06:23:27;;;;;;;25.77;14.25;;;1.90;99.90;;;;;;5078327;28;20036;-62
2023/01/25 06:26:01;;;;;;;37.45;14.40;;;1.90;99.90;;;;;;5080192;28;20067;-63
2023/01/25 06:28:34;;;;;;;28.73;15.37;;;2.10;99.90;;;;;;5069810;28;20123;-62
2023/01/25 06:31:11;;;;;;;31.85;14.52;;;1.90;99.90;;;;;;5064556;28;20278;-60
2023/01/25 06:33:38;;;;;;;29.05;15.38;;;1.90;99.90;;;;;;5073585;28;20040;-63
2023/01/25 06:36:07;;;;;;;26.02;14.57;;;1.90;99.90;;;;;;5082023;28;20440;-64
2023/01/25 06:38:32;;;;;;;36.00;15.40;;;1.90;99.90;;;;;;5083750;28;20024;-65
2023/01/25 06:41:03;;;;;;;32.67;15.63;;;2.00;99.90;;;;;;5073452;28;20032;-63
2023/01/25 06:43:30;;;;;;;35.53;16.30;;;1.90;99.90;;;;;;5066165;28;20090;-55
2023/01/25 06:46:04;;;;;;;31.58;16.95;;;1.90;99.90;;;;;;5081921;28;20031;-63
2023/01/25 06:48:31;;;;;;;35.83;16.58;;;1.90;99.90;;;;;;5068579;28;20038;-66
2023/01/25 06:51:05;;;;;;;40.03;17.52;;;1.80;99.90;;;;;;5078752;28;20032;-60
2023/01/25 06:53:34;;;;;;;42.85;16.70;;;1.90;99.90;;;;;;5079107;28;20116;-61
2023/01/25 06:56:05;;;;;;;38.33;19.65;;;1.80;99.90;;;;;;5070113;28;20020;-67
2023/01/25 06:58:31;;;;;;;45.45;18.80;;;1.80;99.90;;;;;;5082872;28;20048;-64
2023/01/25 07:01:03;;;;;;;39.55;18.88;;;1.80;99.90;;;;;;5070207;28;20028;-58
2023/01/25 07:03:30;;;;;;;55.58;18.92;;;1.80;99.90;;;;;;5071398;28;20032;-63
2023/01/25 07:06:04;;;;;;;41.20;18.38;;;1.70;99.90;;;;;;5068991;28;20032;-62
2023/01/25 07:08:30;;;;;;;;;;;1.70;99.90;;;;;;5072144;28;20033;-62
2023/01/25 07:10:58;;;;;;;40.95;18.02;;;1.70;99.90;;;;;;5069910;28;19904;-56
2023/01/25 07:13:25;;;;;;;43.50;19.48;;;1.80;99.90;;;;;;5069889;28;20115;-60
2023/01/25 07:15:59;;;;;;;48.38;20.23;;;1.80;99.90;;;;;;5070461;28;20043;-62
2023/01/25 07:18:26;;;;;;;48.88;20.08;;;1.80;99.90;;;;;;5071491;28;20101;-62
2023/01/25 07:20:52;;;;;;;45.25;20.83;;;1.80;99.90;;;;;;5070573;28;20045;-59
2023/01/25 07:23:19;;;;;;;47.70;20.13;;;1.80;99.90;;;;;;5070900;28;20403;-58
2023/01/25 07:25:46;;;;;;;45.53;19.77;;;1.90;99.90;;;;;;5071007;28;20415;-61
2023/01/25 07:28:12;;;;;;;44.90;19.42;;;1.90;99.90;;;;;;5069234;28;20230;-65
2023/01/25 07:30:37;;;;;;;44.63;20.08;;;1.90;99.90;;;;;;5070288;28;20141;-59
2023/01/25 07:33:03;;;;;;;46.97;18.85;;;1.80;99.90;;;;;;5070501;28;20348;-60
2023/01/25 07:35:30;;;;;;;48.20;21.27;;;1.70;99.90;;;;;;5070408;28;20104;-62
2023/01/25 07:37:56;;;;;;;52.75;22.50;;;1.80;99.90;;;;;;5070696;28;20048;-61
2023/01/25 07:40:24;;;;;;;57.42;24.67;;;1.70;99.90;;;;;;5067286;28;20492;-60
2023/01/25 07:42:53;;;;;;;58.83;24.38;;;1.80;99.90;;;;;;5064833;28;20572;-61
2023/01/25 07:45:19;;;;;;;65.28;24.95;;;1.80;99.90;;;;;;5068926;28;20039;-64
2023/01/25 07:47:45;;;;;;;81.78;26.75;;;1.80;99.90;;;;;;5070113;28;20028;-61
2023/01/25 07:50:11;;;;;;;60.42;25.85;;;1.80;99.90;;;;;;5069461;28;20055;-58
2023/01/25 07:52:37;;;;;;;58.40;25.05;;;1.80;99.90;;;;;;5069062;28;20025;-59
2023/01/25 07:55:03;;;;;;;71.28;27.35;;;1.70;99.90;;;;;;5069613;28;20028;-58
2023/01/25 07:57:29;;;;;;;61.13;24.33;;;1.80;99.90;;;;;;5070759;28;20027;-60
2023/01/25 07:59:54;;;;;;;64.28;24.58;;;1.80;99.90;;;;;;5070711;28;20028;-62
2023/01/25 08:02:20;;;;;;;63.65;24.40;;;1.80;99.90;;;;;;5070741;28;20533;-62
2023/01/25 08:04:46;;;;;;;57.33;23.60;;;1.90;99.90;;;;;;5070413;28;20024;-61
2023/01/25 08:07:13;;;;;;;65.82;23.85;;;2.20;99.90;;;;;;5070797;28;20028;-61
2023/01/25 08:09:40;;;;;;;57.05;23.00;;;1.70;99.90;;;;;;5070683;28;20067;-61
2023/01/25 08:12:05;;;;;;;55.83;20.15;;;1.80;99.90;;;;;;5070858;28;20374;-60
2023/01/25 08:14:31;;;;;;;51.33;19.98;;;1.70;99.90;;;;;;5070278;28;20144;-63
2023/01/25 08:16:57;;;;;;;55.15;20.85;;;1.70;99.90;;;;;;5070670;28;20048;-60
2023/01/25 08:19:23;;;;;;;54.65;21.65;;;1.70;99.90;;;;;;5070522;28;20040;-59
2023/01/25 08:21:49;;;;;;;69.25;23.63;;;2.00;99.90;;;;;;5070034;28;20020;-55
2023/01/25 08:24:15;;;;;;;58.20;23.08;;;1.60;99.90;;;;;;5069797;28;20021;-60
2023/01/25 08:26:42;;;;;;;56.95;22.63;;;1.90;99.90;;;;;;5070316;28;20049;-57
2023/01/25 08:29:09;;;;;;;51.03;20.75;;;1.70;99.90;;;;;;5070407;28;20036;-60
2023/01/25 08:31:36;;;;;;;53.72;22.25;;;1.70;99.90;;;;;;5070645;28;20048;-62
2023/01/25 08:34:02;;;;;;;52.72;20.67;;;1.80;99.90;;;;;;5068640;28;20043;-61
2023/01/25 08:36:28;;;;;;;54.42;21.80;;;1.80;99.90;;;;;;5070172;28;20025;-60
2023/01/25 08:38:59;;;;;;;55.15;23.10;;;1.80;99.90;;;;;;5069753;28;20112;-60
2023/01/25 08:41:26;;;;;;;61.70;21.88;;;1.80;99.90;;;;;;5099669;22;20040;-58
2023/01/25 08:43:53;;;;;;;48.85;20.23;;;1.90;99.90;;;;;;5093332;28;20120;-58
2023/01/25 08:46:19;;;;;;;44.63;19.83;;;1.80;99.90;;;;;;5093953;28;20028;-58
2023/01/25 08:48:45;;;;;;;45.28;18.02;;;2.10;99.90;;;;;;5093764;28;20024;-54
2023/01/25 08:51:13;;;;;;;57.33;19.77;;;2.10;99.90;;;;;;5092855;28;20207;-56
2023/01/25 08:53:39;;;;;;;61.63;23.63;;;1.50;99.90;;;;;;5093289;28;20032;-53
2023/01/25 08:56:07;;;;;;;50.20;20.80;;;2.00;99.90;;;;;;5093012;28;20024;-54
2023/01/25 08:58:33;;;;;;;63.80;23.45;;;1.60;99.90;;;;;;5092914;28;20020;-59
2023/01/25 09:01:08;;;;;;;66.93;22.23;;;1.60;99.90;;;;;;5093722;28;20030;-59
2023/01/25 09:03:38;;;;;;;66.50;24.67;;;1.60;99.90;;;;;;5092597;28;20020;-57
2023/01/25 09:06:05;;;;;;;53.72;21.80;;;1.80;99.90;;;;;;5094595;28;20043;-61
2023/01/25 09:08:32;;;;;;;53.75;20.42;;;1.70;99.90;;;;;;5095825;28;20077;-56
2023/01/25 09:11:06;;;;;;;52.88;18.80;;;1.60;99.90;;;;;;5097630;28;20040;-59
2023/01/25 09:13:32;;;;;;;64.20;23.35;;;1.50;99.90;;;;;;5095504;28;20107;-56
2023/01/25 09:16:02;;;;;;;49.95;18.58;;;1.50;99.90;;;;;;5097757;28;20060;-56
2023/01/25 09:18:29;;;;;;;52.10;20.05;;;1.40;99.90;;;;;;5097788;28;20142;-58
2023/01/25 09:20:55;;;;;;;45.13;19.13;;;1.30;99.90;;;;;;5097566;28;20080;-58
2023/01/25 09:23:22;;;;;;;51.00;18.70;;;1.30;99.90;;;;;;5096943;28;20039;-61
2023/01/25 09:25:58;;;;;;;48.03;20.42;;;1.30;99.90;;;;;;5082576;28;20032;-59
2023/01/25 09:28:25;;;;;;;52.78;20.30;;;1.30;99.90;;;;;;5077528;28;20395;-59
2023/01/25 09:31:06;;;;;;;44.28;20.23;;;1.30;99.90;;;;;;5076720;28;20028;-60
2023/01/25 09:33:35;;;;;;;57.42;20.70;;;1.30;99.90;;;;;;5059163;28;20032;-59
2023/01/25 09:36:01;;;;;;;63.38;22.80;;;1.20;99.90;;;;;;5077069;28;20102;-57
2023/01/25 09:38:27;;;;;;;59.88;21.67;;;1.20;99.90;;;;;;5058565;28;20091;-58
2023/01/25 09:41:30;;;;;;;57.00;20.98;;;1.40;99.90;;;;;;5079944;28;20032;-57
2023/01/25 09:44:14;;;;;;;61.53;19.95;;;1.50;99.90;;;;;;5096382;28;20111;-58
2023/01/25 09:46:47;;;;;;;45.30;18.73;;;1.50;99.90;;;;;;5096038;28;20068;-58
2023/01/25 09:49:31;;;;;;;47.55;19.70;;;1.90;99.90;;;;;;5096095;28;20132;-59
2023/01/25 09:52:08;;;;;;;60.38;22.98;;;1.60;99.90;;;;;;5096411;28;20024;-59
2023/01/25 09:54:42;;;;;;;49.03;20.35;;;1.60;99.90;;;;;;5096694;28;20052;-58
2023/01/25 09:57:30;;;;;;;53.58;20.75;;;1.60;99.90;;;;;;5096411;28;20031;-59
2023/01/25 09:59:59;;;;;;;47.33;18.83;;;1.50;99.90;;;;;;5096746;28;20068;-58
2023/01/25 10:02:53;;;;;;;46.00;20.35;;;1.40;99.90;;;;;;5095799;28;20035;-59
2023/01/25 10:05:22;;;;;;;44.42;19.52;;;1.50;99.90;;;;;;5077381;28;20554;-59
2023/01/25 10:08:20;;;;;;;49.65;19.52;;;1.50;99.90;;;;;;5094901;28;20028;-59
2023/01/25 10:10:55;;;;;;;52.13;19.20;;;1.50;99.90;;;;;;5095410;28;20094;-57
2023/01/25 10:13:23;;;;;;;56.00;21.58;;;1.60;99.90;;;;;;5076604;28;20032;-60
2023/01/25 10:16:17;;;;;;;59.05;20.70;;;1.60;99.90;;;;;;5076090;28;20086;-59
2023/01/25 10:19:03;;;;;;;60.55;23.95;;;1.60;99.90;;;;;;5043634;28;20396;-58
2023/01/25 10:21:37;;;;;;;58.33;22.48;;;1.70;99.90;;;;;;5075221;28;20051;-60
2023/01/25 10:24:30;;;;;;;51.20;20.23;;;1.70;99.90;;;;;;5073188;28;20024;-58
2023/01/25 10:27:02;;;;;;;62.95;22.58;;;1.80;99.90;;;;;;5074355;28;20099;-60
2023/01/25 10:29:31;;;;;;;73.22;26.15;;;1.70;99.90;;;;;;5054933;28;20035;-58
2023/01/25 10:32:22;;;;;;;57.83;23.15;;;2.30;99.90;;;;;;5073079;28;20477;-57
2023/01/25 10:34:53;;;;;;;61.42;24.35;;;1.80;99.90;;;;;;5072237;28;20564;-60
2023/01/25 10:37:22;;;;;;;62.88;23.73;;;1.70;99.90;;;;;;5054693;28;20033;-59
2023/01/25 10:40:00;;;;;;;56.40;22.05;;;1.70;99.90;;;;;;5077787;28;20032;-58
2023/01/25 10:42:28;;;;;;;60.03;22.33;;;1.60;99.90;;;;;;5091904;28;20028;-59
2023/01/25 10:44:54;;;;;;;56.78;22.05;;;1.70;99.90;;;;;;5090074;28;20035;-62
2023/01/25 10:47:26;;;;;;;59.28;22.52;;;1.60;99.90;;;;;;5091146;28;20487;-56
2023/01/25 10:49:55;;;;;;;51.92;21.40;;;1.40;99.90;;;;;;5092048;28;20085;-55
2023/01/25 10:52:23;;;;;;;66.88;23.60;;;1.40;99.90;;;;;;5092675;28;20036;-58
2023/01/25 10:55:14;;;;;;;61.70;21.23;;;1.40;99.90;;;;;;5091750;28;20124;-62
2023/01/25 10:57:46;;;;;;;57.28;22.73;;;1.50;99.90;;;;;;5092340;28;20367;-59
2023/01/25 11:00:26;;;;;;;54.80;22.33;;;1.40;99.90;;;;;;5092091;28;20399;-56
2023/01/25 11:02:53;;;;;;;69.97;24.80;;;1.30;99.90;;;;;;5092314;28;20028;-60
2023/01/25 11:05:26;;;;;;;62.67;22.80;;;1.30;99.90;;;;;;5091963;28;20035;-58
2023/01/25 11:07:52;;;;;;;56.03;21.25;;;1.30;99.90;;;;;;5086075;28;20043;-58
2023/01/25 11:10:32;;;;;;;82.53;24.55;;;1.30;99.90;;;;;;5071858;28;20494;-62
2023/01/25 11:13:15;;;;;;;64.90;23.65;;;1.40;99.90;;;;;;5071549;28;20032;-58
2023/01/25 11:15:43;;;;;;;71.28;24.73;;;1.30;99.90;;;;;;5071896;28;20028;-58
2023/01/25 11:18:16;;;;;;;62.13;24.27;;;1.40;99.90;;;;;;5071771;28;20451;-57
2023/01/25 11:20:42;;;;;;;70.35;25.23;;;1.40;99.90;;;;;;5071598;28;20025;-62
2023/01/25 11:23:23;;;;;;;79.03;27.77;;;1.40;99.90;;;;;;5071467;28;20031;-56
2023/01/25 11:25:48;;;;;;;71.25;26.60;;;1.50;99.90;;;;;;5071774;28;20205;-60
2023/01/25 11:28:20;;;;;;;81.55;29.25;;;1.50;99.90;;;;;;5071598;28;20124;-60
2023/01/25 11:30:47;;;;;;;64.13;23.92;;;2.10;99.90;;;;;;5070516;28;20025;-60
2023/01/25 11:33:15;;;;;;;65.30;24.70;;;1.60;99.90;;;;;;5071420;28;20024;-59
2023/01/25 11:36:31;;;;;;;65.38;23.92;;;1.50;99.90;;;;;;5071438;28;20028;-61
2023/01/25 11:39:09;;;;;;;;;;;1.50;99.90;;;;;;5039592;28;20128;-60
2023/01/25 11:41:41;;;;;;;70.57;24.98;;;1.50;99.90;;;;;;5072443;28;19952;-58
2023/01/25 11:44:12;;;;;;;68.15;26.52;;;1.80;99.90;;;;;;5072323;28;20420;-61
2023/01/25 11:47:01;;;;;;;85.95;29.95;;;1.40;99.90;;;;;;5072741;28;20492;-58
2023/01/25 11:49:47;;;;;;;80.70;29.23;;;1.50;99.90;;;;;;5054045;28;20028;-57
2023/01/25 11:52:58;;;;;;;77.35;27.40;;;1.50;99.90;;;;;;5078943;28;20039;-58
2023/01/25 11:55:45;;;;;;;73.00;25.98;;;1.50;99.90;;;;;;5070828;28;20036;-59
2023/01/25 11:58:23;;;;;;;83.00;27.15;;;1.50;99.90;;;;;;5091916;28;20020;-59
2023/01/25 12:01:07;;;;;;;85.53;28.42;;;1.40;99.90;;;;;;5091505;28;20501;-58
2023/01/25 12:03:51;;;;;;;89.22;28.23;;;3.80;99.90;;;;;;5090837;28;20076;-58
2023/01/25 12:06:41;;;;;;;78.45;27.58;;;1.40;99.90;;;;;;5073328;28;20032;-58
2023/01/25 12:09:35;;;;;;;78.18;26.50;;;1.40;99.90;;;;;;5089731;28;20063;-61
2023/01/25 12:12:28;;;;;;;73.50;25.20;;;1.40;99.90;;;;;;5091426;28;20020;-59
2023/01/25 12:15:21;;;;;;;83.03;27.67;;;1.40;99.90;;;;;;5090932;28;20099;-58
2023/01/25 12:18:05;;;;;;;76.30;27.00;;;1.40;99.90;;;;;;5059195;28;20086;-56
2023/01/25 12:20:38;;;;;;;65.20;25.02;;;1.50;99.90;;;;;;5090944;28;20103;-60
2023/01/25 12:23:23;;;;;;;87.47;27.25;;;1.40;99.90;;;;;;5090908;28;20032;-57
2023/01/25 12:25:51;;;;;;;;;;;1.40;99.90;;;;;;5089560;28;20036;-59
2023/01/25 12:29:09;;;;;;;80.80;28.35;;;1.40;99.90;;;;;;5091040;28;19918;-58
2023/01/25 12:31:46;;;;;;;86.50;28.67;;;1.50;99.90;;;;;;5057177;28;20039;-58
2023/01/25 12:34:23;;;;;;;89.38;29.50;;;1.40;99.90;;;;;;5090342;28;20081;-58
2023/01/25 12:36:50;;;;;;;88.88;30.45;;;1.50;99.90;;;;;;5090930;28;20024;-58
2023/01/25 12:39:15;;;;;;;82.95;30.17;;;1.60;99.90;;;;;;5078714;28;20031;-60
2023/01/25 12:42:06;;;;;;;102.45;31.30;;;1.80;99.90;;;;;;5073026;28;20036;-56
2023/01/25 12:44:38;;;;;;;98.85;32.63;;;1.60;99.90;;;;;;5074545;28;20099;-59
2023/01/25 12:47:19;;;;;;;92.13;34.20;;;1.60;99.90;;;;;;5074734;28;20352;-56
2023/01/25 12:49:51;;;;;;;89.32;31.05;;;1.60;99.90;;;;;;5056560;28;20104;-58
2023/01/25 12:52:33;;;;;;;87.30;30.85;;;1.70;99.90;;;;;;5077467;28;20392;-57